Kt Birdie — 3FUJ7 — position and weather

sailwx.info

Track history (hours):
 
Tides and Currents Weather Stations Pressure Air Temp Water Temp Dewpoint Dewpoint Depression Visibility Wind Speed Wind Dir Waves Ship Positions

Kt Birdie

Last reported at 2015-May-22 09:30 UTC. Time now 2015-May-22 10:01 UTC.
Position S 33°05' E 152°21'.

Length 225 m; draft 7.2 m.

Type: Cargo ship. MMSI: 354803000.

Date/timePositionNaut miles runAvg speedWind from/ knotsBaromVisibWave heightAir tempDewpointWater temp
2015-May-22 09:30S 33°05' E 152°21'2 1.8
2015-May-22 08:33S 33°03' E 152°22'2 1.7
2015-May-22 07:33S 33°01' E 152°23'2 1.6
2015-May-22 06:33S 33°01' E 152°24'2 2.5
2015-May-22 05:33S 32°60' E 152°27'2 1.7
2015-May-22 04:31S 33°01' E 152°26'2 1.9
2015-May-22 03:33S 33°03' E 152°26'2 1.6
2015-May-22 02:32S 33°05' E 152°26'1 1.5
2015-May-22 01:32S 33°06' E 152°26'3 0.8
2015-May-21 22:20S 33°08' E 152°24'1 1.1
2015-May-21 21:32S 33°08' E 152°23'1 1.5
2015-May-21 20:33S 33°08' E 152°21'1 1.4
2015-May-21 19:29S 33°07' E 152°20'1 1.5
2015-May-21 18:33S 33°07' E 152°18'2 1.5
2015-May-21 17:16S 33°06' E 152°16'1 1.2
2015-May-21 16:33S 33°06' E 152°15'1 1.3
2015-May-21 15:33S 33°06' E 152°13'1 0.7
2015-May-21 14:33S 33°07' E 152°13'1 0.8
2015-May-21 13:33S 33°07' E 152°12'1 0.7
2015-May-21 12:33S 33°08' E 152°12'0 0.4
2015-May-21 11:33S 33°08' E 152°12'0 0.4
2015-May-21 10:33S 33°09' E 152°12'0 0.3
2015-May-21 09:33S 33°09' E 152°11'7 7.0
2015-May-21 08:33S 33°04' E 152°05'8 7.5
2015-May-21 07:33S 32°57' E 152°03'1312.8
2015-May-21 06:33S 32°54' E 152°18'1414.0
2015-May-21 05:33S 32°46' E 152°32'1414.2
2015-May-21 04:33S 32°38' E 152°46'29413.7
2015-May-20 07:06S 27°53' E 154°07'612.0
2015-May-20 06:33S 27°46' E 154°07'2612.2
2015-May-20 04:24S 27°20' E 154°07'1212.3
2015-May-20 03:26S 27°08' E 154°07'5212.7
2015-May-19 23:18S 26°16' E 154°07'1312.5
2015-May-19 22:16S 26°02' E 154°07'  
Track history (hours):
 
Tides and Currents Weather Stations Pressure Air Temp Water Temp Dewpoint Dewpoint Depression Visibility Wind Speed Wind Dir Waves Ship Positions

Kt Birdie

Last reported at 2015-May-22 09:30 UTC. Time now 2015-May-22 10:01 UTC.
Position S 33°05' E 152°21'.

Length 225 m; draft 7.2 m.

Type: Cargo ship. MMSI: 354803000.

Date/timePositionNaut miles runAvg speedWind from/ knotsBaromVisibWave heightAir tempDewpointWater temp
2015-May-22 09:30S 33°05' E 152°21'2 1.8
2015-May-22 08:33S 33°03' E 152°22'2 1.7
2015-May-22 07:33S 33°01' E 152°23'2 1.6
2015-May-22 06:33S 33°01' E 152°24'2 2.5
2015-May-22 05:33S 32°60' E 152°27'2 1.7
2015-May-22 04:31S 33°01' E 152°26'2 1.9
2015-May-22 03:33S 33°03' E 152°26'2 1.6
2015-May-22 02:32S 33°05' E 152°26'1 1.5
2015-May-22 01:32S 33°06' E 152°26'3 0.8
2015-May-21 22:20S 33°08' E 152°24'1 1.1
2015-May-21 21:32S 33°08' E 152°23'1 1.5
2015-May-21 20:33S 33°08' E 152°21'1 1.4
2015-May-21 19:29S 33°07' E 152°20'1 1.5
2015-May-21 18:33S 33°07' E 152°18'2 1.5
2015-May-21 17:16S 33°06' E 152°16'1 1.2
2015-May-21 16:33S 33°06' E 152°15'1 1.3
2015-May-21 15:33S 33°06' E 152°13'1 0.7
2015-May-21 14:33S 33°07' E 152°13'1 0.8
2015-May-21 13:33S 33°07' E 152°12'1 0.7
2015-May-21 12:33S 33°08' E 152°12'0 0.4
2015-May-21 11:33S 33°08' E 152°12'0 0.4
2015-May-21 10:33S 33°09' E 152°12'0 0.3
2015-May-21 09:33S 33°09' E 152°11'7 7.0
2015-May-21 08:33S 33°04' E 152°05'8 7.5
2015-May-21 07:33S 32°57' E 152°03'1312.8
2015-May-21 06:33S 32°54' E 152°18'1414.0
2015-May-21 05:33S 32°46' E 152°32'1414.2
2015-May-21 04:33S 32°38' E 152°46'29413.7
2015-May-20 07:06S 27°53' E 154°07'612.0
2015-May-20 06:33S 27°46' E 154°07'2612.2
2015-May-20 04:24S 27°20' E 154°07'1212.3
2015-May-20 03:26S 27°08' E 154°07'5212.7
2015-May-19 23:18S 26°16' E 154°07'1312.5
2015-May-19 22:16S 26°02' E 154°07'  

Dump ship's entire track history